x

Neah Bay, - 6nm North Of Cape Flattery, Wa (traffic Separation Lighted Buoy) (46087) Wave Buoy

2:50 - Sat 22nd Jul 2017 All times are PDT. -7 hours from GMT.

  • Sig Wave height 3.3ft
  • Swell Direction
  • Peak Period 7s
  • Average Period 6s
  • Wind
    2mph, 4mph gusts
  • Sea Temp 54°f
  • Luft Temp 56°f
  • Sea Pressure 1022.4mb
  • Neah Bay, - 6nm North Of Cape Flattery, Wa     (traffic Separation Lighted Buoy)
  • Neah Bay, - 6nm North Of Cape Flattery, Wa     (traffic Separation Lighted Buoy)

More Historic Weather Station data

Upgrade to MSW Pro to gain access to the past 30 days of data for over 8000 Wavebouys and Weather Stations around the globe.

Join Pro

Comparision Forecast

View Surf forecast
   
Sa 07/22 2:50 3.5ft 7s 6s 2 4 mph 1022.4mb 54f 56f
2:20 3.5ft 7s 6s 4 4 mph 1022.5mb 54f 56f
1:50 4ft 7s 6s 4 4 mph 1022.6mb 53f 55f
1:20 3.5ft 7s 6s 4 7 mph 1022.5mb 53f 55f
12:50 3.5ft 8s 6s 4 4 mph 1022.6mb 53f 55f
12:20 3.5ft 8s 6s 4 7 mph 1022.4mb 53f 55f
11:50 3.5ft 7s 6s 4 7 mph 1022.4mb 54f 55f
11:20 3.5ft 8s 6s 2 2 mph 1022.2mb 54f 55f
10:50 3.5ft 7s 6s 7 9 mph 1022mb 54f 56f
10:20 3.5ft 8s 6s 7 9 mph 1021.9mb 54f 55f
9:50 4ft 8s 6s 7 11 mph 1021.7mb 54f 55f
9:20 4ft 8s 7s 9 11 mph 1021.8mb 54f 55f
8:50 4ft 8s 7s 9 11 mph 1021.7mb 54f 55f
8:20 4ft 8s 7s 9 11 mph 1021.6mb 54f 55f
7:50 3.5ft 8s 7s 9 11 mph 1021.4mb 54f 55f
7:20 3.5ft 8s 7s 9 11 mph 1021.3mb 54f 54f
6:50 4ft 8s 7s 11 13 mph 1020.9mb 54f 55f
6:20 4ft 8s 7s 11 13 mph 1020.8mb 54f 56f
5:50 4ft 8s 7s 9 13 mph 1020.5mb 54f 55f
5:20 4.5ft 8s 7s 9 11 mph 1020.4mb 54f 55f
4:50 4.5ft 8s 7s 9 11 mph 1020.3mb 54f 55f
4:20 4.5ft 8s 7s 9 11 mph 1020.1mb 54f 56f
3:50 5ft 8s 6s 9 11 mph 1020.1mb 54f 56f
3:20 4.5ft 8s 6s 7 9 mph 1019.9mb 54f 56f
2:50 4.5ft 7s 6s 7 9 mph 1019.9mb 54f 55f
2:20 5ft 8s 6s 9 9 mph 1019.8mb 54f 56f
1:50 4.5ft 7s 6s 7 9 mph 1019.9mb 54f 55f
1:20 4.5ft 8s 6s 7 9 mph 1019.9mb 54f 55f
12:50 4.5ft 8s 6s 9 9 mph 1019.9mb 54f 55f
12:20 4.5ft 7s 6s 9 9 mph 1020mb 54f 55f
Fr 07/21 11:50 4ft 8s 6s 7 9 mph 1020.1mb 55f 55f
11:20 3.5ft 7s 6s 4 4 mph 1020.2mb 55f 56f
10:50 3ft 7s 6s 2 4 mph 1020.1mb 55f 57f
10:20 2.5ft 6s 6s 7 11 mph 1020.1mb 55f 58f
9:50 2.5ft 6s 6s 4 7 mph 1020mb 55f 58f
9:20 2ft 7s 6s 4 7 mph 1019.9mb 55f 59f
8:50 1.6ft 5s 6s 4 11 mph 1019.8mb 55f 59f
8:20 1.3ft 15s 6s 2 4 mph 1019.9mb 55f 57f
7:50 1.3ft 15s 6s 4 4 mph 1020mb 55f 56f
7:20 1.3ft 15s 6s 4 7 mph 1020.2mb 55f 58f
6:50 1ft 15s 6s  -  2 mph 1020.2mb 55f 60f
6:20 1ft 16s 6s 4 4 mph 1020.5mb 55f 59f
5:50 1ft 15s 6s 4 4 mph 1020.7mb 55f 57f
5:20 1ft 15s 6s 2 4 mph 1020.9mb 55f 58f
4:50 1ft 16s 7s 4 4 mph 1021.1mb 55f 58f
4:20 1ft 16s 6s 2 2 mph 1021.4mb 55f 58f
3:50 1ft 15s 6s 2 2 mph 1021.5mb 55f 57f
3:20 1ft 15s 6s 4 7 mph 1021.6mb 55f 57f
2:50 1ft 13s 6s 4 7 mph 1021.6mb 55f 57f
2:20 1ft 15s 6s 2 4 mph 1021.4mb 55f 57f
1:50 1.3ft 14s 6s  -  2 mph 1021.3mb 55f 57f
1:20 1.3ft 15s 5s 2 2 mph 1021.3mb 55f 55f
12:50 1.3ft 13s 5s 2 2 mph 1021.1mb 55f 55f
12:20 1.3ft 14s 5s 2 2 mph 1020.8mb 54f 55f
11:50 1.3ft 15s 5s 2 2 mph 1020.9mb 54f 55f
11:20 1.3ft 13s 5s 2 2 mph 1020.7mb 54f 55f
10:50 1.3ft 14s 5s 2 2 mph 1020.7mb 54f 54f
10:20 1.3ft 13s 5s 2 2 mph 1020.7mb 54f 54f
9:50 1.3ft 15s 6s 2 2 mph 1020.8mb 54f 54f
9:20 1.3ft 16s 6s 7 7 mph 1020.7mb 54f 55f
8:50 1.3ft 13s 6s 4 7 mph 1020.3mb 54f 54f
8:20 1.3ft 8s 6s 4 4 mph 1020.1mb 54f 54f
7:50 1.3ft 13s 6s 4 4 mph 1020.2mb 54f 53f
7:20 1.3ft 16s 6s 2 2 mph 1020.2mb 53f 53f
6:50 1.3ft 8s 6s 2 4 mph 1019.9mb 54f 53f
6:20 1.3ft 14s 7s 4 4 mph 1019.8mb 54f 53f
5:50 1.3ft 14s 7s 4 7 mph 1019.8mb 54f 53f
5:20 1.3ft 8s 6s 7 7 mph 1019.7mb 54f 53f
4:50 1.3ft 14s 7s 4 4 mph 1019.8mb 54f 53f
4:20 1.3ft 8s 6s 2 2 mph 1019.7mb 54f 53f
3:50 1.3ft 14s 6s 2 4 mph 1019.7mb 54f 54f
3:20 1.3ft 6s 6s 2 2 mph 1019.8mb 54f 54f
2:50 1.3ft 14s 6s  -  2 mph 1020mb 55f 53f
2:20 1.3ft 8s 5s 2 2 mph 1020.2mb 55f 53f
1:50 1.3ft 14s 5s 2 2 mph 1020.2mb 55f 53f
1:20 1.6ft 14s 5s  -  2 mph 1020.2mb 55f 54f
12:50 1.3ft 8s 5s 2 2 mph 1020.3mb 55f 53f
12:20 1.3ft 14s 5s 2 2 mph 1020.4mb 55f 54f
Do 07/20 11:50 1.3ft 14s 5s 2 2 mph 1020.2mb 55f 54f
11:20 1.3ft 14s 5s 4 4 mph 1020.2mb 55f 53f
10:50 1.3ft 14s 5s 4 4 mph 1020.1mb 55f 54f
10:20 1.3ft 8s 5s 4 7 mph 1020.2mb 55f 55f
9:50 1.6ft 8s 5s 4 7 mph 1020.2mb 55f 56f
9:20 1.3ft 8s 5s 2 4 mph 1020.1mb 56f 56f
8:50 1.3ft 14s 5s 4 4 mph 1020.1mb 56f 56f
8:20 1.3ft 8s 5s 2 2 mph 1020.3mb 56f 57f
7:50 1.3ft 7s 5s 2 4 mph 1020.5mb 56f 57f
7:20 1.3ft 5s 5s 2 4 mph 1020.6mb 57f 58f
6:50 1.3ft 8s 5s 2 2 mph 1020.6mb 57f 58f
6:20 1.6ft 4s 5s 4 7 mph 1020.6mb 57f 58f
5:50 1.6ft 15s 5s 4 4 mph 1020.6mb 57f 58f
5:20 1.3ft 14s 5s 2 4 mph 1020.7mb 57f 59f
4:50 1.6ft 5s 5s 2 4 mph 1021mb 57f 58f
4:20 1.6ft 4s 5s 2 4 mph 1021.1mb 57f 58f
3:20 1.6ft 5s 5s 2 4 mph 1021mb 56f 57f
2:50 2ft 5s 5s 4 4 mph 1021.2mb 56f 57f
2:20 1.6ft 5s 5s 4 4 mph 1021.1mb 56f 57f
1:50 1.6ft 5s 5s 7 7 mph 1021mb 55f 56f
1:20 1.6ft 5s 5s 7 9 mph 1020.8mb 55f 56f
12:50 1.6ft 5s 5s 9 9 mph 1020.8mb 55f 55f
12:20 1.6ft 5s 4s 7 9 mph 1020.6mb 55f 55f
11:50 2ft 5s 4s 9 11 mph 1020.3mb 55f 56f
11:20 2ft 5s 5s 11 11 mph 1019.8mb 54f 56f
10:50 2ft 6s 5s 9 11 mph 1019.5mb 54f 56f
10:20 1.6ft 6s 5s 7 9 mph 1019.1mb 54f 56f
9:50 2ft 6s 5s 7 9 mph 1018.9mb 54f 56f
9:20 2ft 5s 5s 9 9 mph 1018.8mb 54f 56f
8:50 2ft 5s 5s 7 9 mph 1018.7mb 54f 55f
8:20 1.6ft 8s 6s 7 7 mph 1018.5mb 54f 55f
7:50 1.3ft 8s 6s 7 7 mph 1018.2mb 54f 55f
7:20 1.6ft 7s  -  7 9 mph 1017.9mb 54f 55f
6:50 1.3ft 8s 6s 9 11 mph 1017.5mb 54f 56f
6:20 1.3ft 9s 7s 4 7 mph 1017.3mb 54f 57f
5:50 1.3ft 9s 7s 9 9 mph 1017mb 54f 56f
5:20 1.3ft 9s 6s 9 9 mph 1016.8mb 54f 56f
4:50 1.3ft 9s 7s 9 11 mph 1016.7mb 54f 56f
4:20 1.3ft 9s 6s 9 9 mph 1016.6mb 55f 56f
3:50 1.3ft 9s 7s 9 11 mph 1016.4mb 55f 56f
3:20 1ft 9s 6s 9 11 mph 1016.3mb 55f 57f
2:50 1.3ft 10s 6s 9 11 mph 1016.3mb 55f 56f
2:20 1.3ft 9s 6s 7 9 mph 1016.4mb 55f 57f
1:50 1.3ft 9s 6s 4 7 mph 1016.5mb 55f 58f
1:20 1.3ft 6s 6s 4 4 mph 1016.8mb 55f 56f
12:50 1.3ft 6s 6s 4 7 mph 1016.7mb 55f 57f
12:20 1.3ft 9s 6s 4 4 mph 1016.8mb 55f 57f
Mi 07/19 11:50 1.3ft 6s 5s 4 4 mph 1016.8mb 55f 57f
11:20 1.3ft 9s 5s 4 4 mph 1016.8mb 55f 58f
10:50 1.3ft 6s 5s  -  2 mph 1016.9mb 55f 58f
10:20 1.3ft 6s 5s 2 2 mph 1017mb 55f 58f
9:50 1.3ft 6s 5s 2 4 mph 1016.9mb 55f 57f
9:20 1.6ft 9s 5s 2 2 mph 1016.8mb 55f 56f
8:50 1.3ft 9s 5s 2 2 mph 1016.6mb 55f 57f
8:20 1.3ft 6s 5s  -  2 mph 1016.9mb 55f 56f
7:50 1.3ft 9s 5s 2 2 mph 1017mb 55f 56f
7:20 1.3ft 6s 5s 2 2 mph 1017mb 55f 56f
6:50 1.6ft 6s 5s 2 4 mph 1017.1mb 55f 56f
5:50 1.6ft 6s 5s 4 4 mph 1017.5mb 55f 57f
5:20 1.3ft 6s 5s 4 4 mph 1017.7mb 55f 56f
4:50 1.3ft 6s 5s 4 4 mph 1017.9mb 55f 57f
4:20 1.3ft 10s 5s 7 7 mph 1018.2mb 55f 57f
3:50 1.6ft 6s 5s 4 4 mph 1018.3mb 55f 56f
3:20 1.3ft 6s 5s 7 9 mph 1018.4mb 55f 56f
2:50 1.3ft 6s 5s 9 11 mph 1018.4mb 55f 56f
2:20 1.3ft 10s 6s 9 9 mph 1018.7mb 55f 56f
1:50 1.3ft 6s 5s 9 11 mph 1018.8mb 55f 56f
1:20 1.3ft 6s 5s 11 13 mph 1018.9mb 55f 57f
12:50 1.3ft 6s 5s 9 11 mph 1019mb 55f 56f
12:20 1.3ft 6s 5s 9 11 mph 1019mb 55f 56f
11:50 1.6ft 5s 4s 9 11 mph 1019.1mb 55f 56f
11:20 1.6ft 6s 4s 9 11 mph 1019.3mb 54f 56f
10:50 1.6ft 6s 4s 7 9 mph 1019.2mb 54f 55f
10:20 1.6ft 5s 5s 7 9 mph 1019.2mb 54f 55f
9:50 2ft 6s 5s 4 7 mph 1019.4mb 54f 56f
9:20 2ft 6s 5s 4 4 mph 1019.5mb 54f 55f
8:50 2ft 5s 5s 4 7 mph 1019.4mb 54f 55f
8:20 2ft 5s 5s 4 7 mph 1019.4mb 54f 54f
7:50 2ft 5s 5s 4 4 mph 1019.4mb 54f 54f
7:20 2ft 6s 5s 4 4 mph 1019.4mb 54f 54f
6:50 2ft 6s 5s 4 4 mph 1019.4mb 54f 55f
6:20 2ft 6s 6s 2 4 mph 1019.3mb 54f 55f
5:50 2ft 6s 5s 2 4 mph 1019.2mb 54f 55f
5:20 2.5ft 6s 6s 4 4 mph 1019.2mb 54f 55f
4:50 2ft 7s 6s 2 4 mph 1019.1mb 54f 55f
4:20 2ft 6s 6s 4 4 mph 1019mb 54f 56f
3:50 2ft 6s 6s 2 4 mph 1018.9mb 54f 56f
3:20 1.6ft 6s 6s 4 9 mph 1018.9mb 54f 56f
2:50 2ft 7s 6s 4 4 mph 1018.9mb 55f 56f
2:20 2ft 6s 5s 4 4 mph 1018.8mb 55f 56f
1:50 1.6ft 7s 5s 4 4 mph 1018.8mb 55f 56f
1:20 2ft 6s 5s 4 7 mph 1018.8mb 55f 57f
12:50 1.6ft 6s 5s 4 4 mph 1018.8mb 55f 57f
12:20 1.6ft 6s 5s 4 9 mph 1018.6mb 55f 57f
Di 07/18 11:50 1.6ft 7s 5s 4 7 mph 1018.5mb 55f 57f
11:20 1.6ft 6s 5s 9 11 mph 1018.6mb 55f 57f